AirNav   Air Wisconsin Up To $57,000 Bonus
 
 1533 users online  

77MO Springhill Airport
Mount Vernon, Missouri, USA

GOING TO MOUNT VERNON?


FAA INFORMATION EFFECTIVE 03 NOVEMBER 2022

Location

FAA Identifier: 77MO
Lat/Long: 37-05-25.5850N 093-46-11.0500W
37-05.426417N 093-46.184167W
37.0904403,-93.7697361
(estimated)
Elevation: 1306 ft. / 398 m (estimated)
Variation: 04E (1995)
From city: 2 miles E of MOUNT VERNON, MO
Time zone: UTC -6 (UTC -5 during Daylight Saving Time)
Zip code: 65712

Airport Operations

Airport use: Private use. Permission required prior to landing
Activation date: 05/1995
Control tower: no
ARTCC: KANSAS CITY CENTER
FSS: COLUMBIA FLIGHT SERVICE STATION
Attendance: UNATNDD
Wind indicator: yes
Segmented circle: no

Airport Communications

WX AWOS-3 at HFJ (16 nm SW): 118.275 (417-476-2613)

Nearby radio navigation aids

VOR radial/distance  VOR name  Freq  Var
SGFr229/26.2SPRINGFIELD VORTAC116.9004E

Airport Services

Runway Information

Runway 16/34

Dimensions: 2500 x 100 ft. / 762 x 30 m
Surface: turf
RUNWAY 16  RUNWAY 34
Latitude: 37-05.621333N37-05.231500N
Longitude: 093-46.267167W093-46.101167W
Elevation: 1301.0 ft.1306.0 ft.
Traffic pattern: leftleft
Obstructions: none30 ft. pline, 300 ft. from runway

Airport Ownership and Management from official FAA records

Ownership: Privately-owned
Owner: MIKE MASON
BOX 223
MT VERNON, MO 65712
Phone 417-466-4430
Manager: MIKE MASON
BOX 223
MT VERNON, MO 65712
Phone 417-466-4430

Airport Operational Statistics

Aircraft based on the field: 2
Single engine airplanes: 2
    

Additional Remarks

FOR CD CTC SPRINGFIELD APCH AT 417-868-5620/5619.

Instrument Procedures

There are no published instrument procedures at 77MO.

Some nearby airports with instrument procedures:

2H2 - Jerry Sumners Sr. Aurora Municipal Airport (8 nm SE)
KHFJ - Monett Regional Airport (16 nm SW)
KSGF - Springfield-Branson National Airport (20 nm NE)
94K - Cassville Municipal Airport (24 nm S)
3DW - Downtown Airport (26 nm E)
 
Loc | Ops | Rwys | IFR | FBO | Links
Com | Nav | Svcs | Stats | Notes

Branson Jet Center
AirBoss

 
Area around 77MO (Springhill Airport)
 
Road maps at: MapQuest Bing Google
 
Aerial photo
No photo
 
Sectional chart

 
Airport distance calculator
Flying to Springhill Airport? Find the distance to fly.

From to 77MO

Sunrise and sunset
Times for 29-Nov-2022
 Local
(UTC-6)
 Zulu
(UTC)
Morning civil twilight06:4112:41
Sunrise07:0913:09
Sunset16:5822:58
Evening civil twilight17:2623:26

Current date and time
Zulu (UTC)  29-Nov-2022 18:32:14
Local (UTC-6)  29-Nov-2022 12:32:14
 
METAR
KHFJ 
16nm SW 
291815Z AUTO 21026G32KT 10SM SCT040 BKN046 20/10 A2957 RMK AO2
KSGF 
20nm NE 
291752Z 23025G32KT 10SM BKN039 BKN048 19/11 A2956 RMK AO2 PK WND 22034/1653 SLP004 T01890106 10200 20106 58013
KFWB 
29nm SE 
291815Z AUTO 21015G27KT 170V240 10SM FEW039 FEW048 21/11 A2959 RMK AO2
TAF
KSGF 
20nm NE 
291720Z 2918/3018 21025G35KT P6SM BKN035 FM292000 25021G32KT P6SM SCT035 FM292300 29022G30KT P6SM SCT035 FM300900 31010KT P6SM SKC
NOTAMs
Click for the latest NOTAMs
NOTAMs are issued by the DoD/FAA and will open in a separate window not controlled by AirNav.

 

 
 

Would you like to see your business listed on this page?

 If your business provides an interesting product or service to pilots, flight crews, aircraft, or users of the Springhill Airport, you should consider listing it here.  To start the listing process, click on the button below
 
Add a business
 

Other Pages about Springhill Airport

Update a link
 
Copyright © AirNav, LLC. All rights reserved. Privacy Policy  Contact